Weather observations for the past three days for
Zapata, TX
Imperial (Metric)
Date Time (cdt) Wind (mph) Vis. (mi.) Weather Sky Cond. Temperature (ºF) Relative Humidity Wind Chill (°F) Heat Index (°F) Pressure Precipitation (in)
Air Dwpt 6 hour altimeter (in) sea level (mb) 1 hr 3 hr 6 hr
Max. Min.
02 17:15 N 5 10.00 Mostly Cloudy SCT060 BKN120 78.1 50.4 38% 79 30.09 0.0
02 16:55 N 6 10.00 Mostly Cloudy SCT060 BKN110 77.5 50.9 39% 78 30.09 0.0
02 16:35 N 8 10.00 Mostly Cloudy SCT060 BKN110 77.2 50.9 40% 78 30.1 0.0
02 16:15 N 8 10.00 Partly Cloudy SCT110 76.3 51.1 41% 78 30.1 0.0
02 15:55 N 6 10.00 Mostly Cloudy SCT048 BKN110 76.5 51.6 42% 78 30.11 0.0
02 15:35 N 8 10.00 Mostly Cloudy BKN048 BKN110 76.3 52.7 44% 78 30.12 0.0
02 15:15 N 6 10.00 Mostly Cloudy BKN046 BKN110 77.2 53.1 43% 78 30.12 0.0
02 14:35 NE 7 10.00 Mostly Cloudy SCT042 BKN110 73.9 52.3 47% 30.14 0.0
02 14:15 N 9 10.00 Partly Cloudy SCT039 SCT110 73 53.2 50% 30.15 0.0
02 13:55 N 9 10.00 Partly Cloudy SCT039 SCT120 72.1 52.9 51% 30.16 0.0
02 13:35 NE 8 10.00 Mostly Cloudy SCT037 BKN120 72.7 53.1 50% 30.16 0.0
02 13:15 N 7 10.00 Partly Cloudy SCT120 71.4 52.9 52% 30.17 0.0
02 12:55 N 7 10.00 Partly Cloudy SCT110 69.8 52.2 70.9 57.4 54% 30.18 0.0
02 12:35 N 6 10.00 Partly Cloudy SCT110 69.8 52.3 54% 30.18 0.0
02 12:15 N 8 10.00 Partly Cloudy SCT110 68 52 57% 30.19 0.0
02 11:55 N 9 10.00 Partly Cloudy SCT110 68.2 52.2 57% 30.19 0.0
02 11:35 N 9 10.00 Mostly Cloudy BKN110 65.7 51.4 60% 30.19 0.0
02 11:15 N 9 10.00 Partly Cloudy SCT110 65.7 51.6 61% 30.19 0.0
02 10:55 N 10 G 16 10.00 Partly Cloudy SCT110 64.8 51.1 61% 30.19 0.0
02 10:35 N 8 10.00 Mostly Cloudy BKN110 63.5 50.9 64% 30.18 0.0
02 10:15 N 10 10.00 Mostly Cloudy BKN110 63.3 50.9 64% 30.18 0.0
02 09:55 N 9 10.00 Mostly Cloudy BKN110 63 50.9 65% 30.18 0.0
02 09:35 N 13 G 17 10.00 Mostly Cloudy BKN110 62.1 50.5 66% 30.17 0.0
02 09:15 N 12 10.00 Mostly Cloudy BKN110 60.8 50.4 69% 30.17 0.0
02 08:55 N 12 G 18 10.00 Mostly Cloudy BKN110 60.3 50.4 70% 30.16 0.0
02 08:35 N 7 10.00 Mostly Cloudy BKN110 59.5 50.9 73% 30.16 0.0
02 08:15 N 9 10.00 Mostly Cloudy BKN110 59.2 50.9 74% 30.14 0.0
02 07:55 N 9 10.00 Overcast OVC110 58.6 50.9 76% 30.13 0.0
02 07:35 N 9 10.00 Mostly Cloudy BKN110 58.1 50.9 77% 30.12 0.0
02 07:15 N 8 10.00 Fair CLR 57.4 51.1 80% 30.1 0.0
02 06:55 N 8 10.00 Fair CLR 57.6 51.8 64.4 57.6 81% 30.09 0.0
02 06:35 N 7 10.00 Fair CLR 58.1 52.7 82% 30.08 0.0
02 06:15 N 9 10.00 Fair CLR 58.3 52.7 82% 30.07 0.0
02 05:55 N 8 10.00 Fair CLR 59 53.6 82% 30.06 0.0
02 05:35 N 14 G 18 10.00 Partly Cloudy SCT015 59.9 54.3 82% 30.06 0.0
02 05:15 N 10 G 16 10.00 Overcast OVC015 61.2 55.4 81% 30.05 0.0
02 04:55 N 10 10.00 Overcast OVC017 60.8 54.7 80% 30.05 0.0
02 04:35 N 8 10.00 Mostly Cloudy SCT019 BKN120 60.8 54.7 80% 30.05 0.0
02 04:15 N 10 10.00 Mostly Cloudy SCT018 BKN120 60.8 55 81% 30.03 0.0
02 03:55 N 13 G 17 10.00 Mostly Cloudy SCT017 BKN120 60.8 55.6 83% 30.03 0.0
02 03:35 N 8 10.00 Mostly Cloudy BKN120 61 55.4 82% 30.04 0.0
02 03:15 N 8 10.00 Overcast SCT047 OVC120 61.3 55.4 81% 30.04 0.0
02 02:55 N 8 10.00 Partly Cloudy SCT016 SCT049 SCT120 61.3 55.4 81% 30.04 0.0
02 02:35 N 9 10.00 Mostly Cloudy BKN016 61.9 55.4 79% 30.04 0.0
02 02:15 N 10 G 16 10.00 Overcast OVC018 62.8 56.3 80% 30.05 0.0
02 01:55 N 9 10.00 Overcast OVC020 63.1 56.3 79% 30.04 0.0
02 01:35 NE 9 10.00 Overcast OVC020 63.5 56.3 78% 30.04 0.0
02 01:15 N 9 10.00 Overcast OVC020 63.9 56.7 78% 30.04 0.0
02 00:55 N 6 10.00 Overcast OVC020 64.4 57.2 69.4 64.4 78% 30.04 0.0
02 00:35 N 10 10.00 Overcast OVC020 64.4 57.2 78% 30.04 0.0
02 00:15 N 10 10.00 Overcast BKN022 OVC027 64.8 57.4 77% 30.04 0.0
01 23:55 N 12 G 16 10.00 Overcast OVC028 64.8 57.2 77% 30.03 0.0
01 23:35 N 9 G 18 10.00 Overcast SCT020 OVC028 65.5 58.1 77% 30.02 0.0
01 23:15 N 15 10.00 Overcast BKN020 BKN025 OVC031 66.6 59.4 78% 30.01 0.0
01 22:55 NE 12 G 16 10.00 Overcast SCT021 BKN030 OVC038 66.7 59.5 78% 30 0.0
01 22:35 NE 9 10.00 Overcast OVC019 66.6 60.1 80% 29.99 0.0
01 22:15 N 16 G 20 10.00 Overcast OVC019 67.5 60.4 78% 29.97 0.0
01 21:55 N 5 10.00 Overcast SCT021 BKN026 OVC034 67.5 60.3 78% 29.96 0.0
01 21:35 NE 10 10.00 Overcast SCT021 OVC026 68 59.9 75% 29.94 0.0
01 21:15 N 15 G 21 10.00 Overcast OVC020 68.5 60.8 76% 29.93 0.0
01 20:35 N 7 10.00 Overcast BKN023 OVC028 68.9 61.9 78% 29.9 0.0
01 20:15 N 8 G 18 10.00 Overcast BKN023 OVC046 68.9 61.3 77% 29.89 0.0
01 19:55 N 12 10.00 Overcast OVC021 69.3 61.9 77% 29.87 0.0
01 19:35 N 9 G 17 10.00 Overcast BKN019 OVC034 69.3 62.4 79% 29.86 0.0
01 19:15 N 13 G 21 10.00 Overcast BKN017 BKN022 OVC037 68.9 62.1 79% 29.85 0.0
01 18:35 N 13 G 17 10.00 Overcast OVC016 68.7 62.8 81% 29.84 0.0
01 18:15 N 10 G 21 10.00 Overcast OVC016 69.3 62.2 78% 29.82 0.0
01 17:35 N 16 G 24 10.00 Overcast OVC016 69.3 62.6 79% 29.81 0.0
01 17:15 N 12 G 18 10.00 Overcast OVC016 69.8 63.1 80% 29.8 0.0
01 16:55 N 13 G 17 10.00 Overcast OVC016 69.8 63.5 81% 29.8 0.0
01 16:35 N 14 G 18 10.00 Overcast OVC016 70.3 64.2 81% 29.79 0.0
01 16:15 N 15 G 20 10.00 Overcast OVC014 70.9 64.9 82% 29.78 0.0
01 15:55 N 14 G 20 10.00 Overcast OVC014 70.5 64.9 83% 29.78 0.0
01 15:35 N 12 G 16 10.00 Overcast BKN012 OVC019 70.5 65.5 84% 29.78 0.0
01 15:15 N 13 10.00 Overcast OVC012 70.3 65.5 85% 29.78 0.0
01 14:55 N 12 10.00 Overcast OVC010 69.8 66.2 88% 29.78 0.0
01 14:35 N 13 G 18 10.00 Overcast OVC008 68.2 66 93% 29.8 0.0
01 14:15 N 12 G 18 10.00 Overcast OVC008 67.3 66.4 97% 29.79 0.0
01 13:55 N 13 G 21 4.00 Light Drizzle OVC006 66.9 66 97% 29.8 0.0
01 13:35 NW 15 G 21 2.50 Drizzle OVC006 67.1 66.4 98% 29.81 0.0
01 13:15 NW 12 G 17 2.50 Fog/Mist OVC006 68 67.3 98% 29.8 0.0
01 12:55 NW 9 3.00 Fog/Mist OVC006 68.4 67.6 76.8 68.2 98% 29.79 0.0 0.03
01 12:35 NW 7 2.00 Fog/Mist OVC006 68.7 68 98% 29.8 0.0
01 11:55 NW 7 3.00 Fog/Mist OVC006 68.4 67.6 98% 29.82 0.0
01 11:35 W 6 4.00 Fog/Mist BKN006 OVC012 68.5 68 98% 29.82 0.0
01 11:15 NW 10 5.00 Fog/Mist BKN006 OVC012 68.4 67.8 98% 29.8 0.0
01 10:55 NW 8 4.00 Light Drizzle SCT006 OVC012 68.5 68 98% 29.8 0.0 0.03
01 10:35 NW 12 3.00 Drizzle SCT008 OVC012 69.3 68.5 98% 29.8 0.0 0.03
01 10:15 NW 6 2.50 Rain BKN004 BKN009 OVC012 69.8 68.9 97% 29.8 0.0 0.03
01 09:55 NW 6 5.00 Heavy Rain BKN004 OVC010 70.7 69.6 96% 29.79 0.0
01 09:35 N 9 7.00 Light Rain SCT004 OVC012 71.8 70 94% 29.78 0.0
01 09:15 E 3 7.00 Overcast OVC012 76.5 73.6 91% 77 29.77 0.0
01 08:55 E 5 5.00 Fog/Mist OVC012 75.9 74.1 94% 75 29.77 0.0
01 08:35 Calm 4.00 Rain OVC012 75.7 74.3 95% 75 29.78 0.0
01 08:15 Calm 2.50 Drizzle OVC012 75.9 73.6 93% 76 29.78 0.0
01 07:55 Calm 4.00 Rain OVC012 76.6 72.9 88% 78 29.78 0.0
01 07:35 Calm 10.00 Overcast BKN012 OVC022 76.5 72.5 88% 77 29.77 0.0
01 07:15 Calm 10.00 Overcast BKN014 OVC024 76.1 72.9 90% 76 29.77 0.0
01 06:55 E 7 5.00 Fog/Mist BKN014 OVC024 76.1 72.5 78.8 76.1 89% 76 29.77 0.0
01 06:35 E 5 10.00 Overcast SCT014 BKN026 OVC031 77 71.6 83% 78 29.77 0.0
01 06:15 SE 5 10.00 Overcast OVC031 77 71.6 83% 78 29.76 0.0
01 05:55 E 8 10.00 Overcast OVC029 77.2 71.4 82% 79 29.75 0.0
01 05:35 E 5 10.00 Overcast SCT016 BKN025 OVC032 77.2 71.4 82% 79 29.75 0.0
01 05:15 SE 8 10.00 Overcast SCT014 BKN021 OVC028 77.2 71.2 82% 79 29.75 0.0
01 04:55 E 7 10.00 Overcast BKN014 OVC024 77.4 71.2 82% 79 29.75 0.0
01 04:35 E 5 10.00 Overcast OVC014 77.4 71.1 81% 79 29.76 0.0
01 04:15 E 6 10.00 Overcast OVC019 77.5 71.2 81% 79 29.76 0.0
01 03:55 E 6 10.00 Overcast OVC019 77.5 71.2 81% 79 29.76 0.0
01 03:35 E 8 10.00 Overcast OVC019 77.5 71.2 81% 79 29.76 0.0
01 02:55 E 6 10.00 Overcast SCT016 OVC023 77.9 70.9 79% 80 29.75 0.0
01 02:35 E 6 10.00 Overcast BKN016 OVC025 78.1 71.2 80% 80 29.77 0.0
01 02:15 SE 6 10.00 Overcast SCT016 BKN023 OVC080 78.1 71.4 80% 80 29.77 0.0
01 01:55 E 8 10.00 Overcast BKN016 OVC080 78.1 71.6 81% 80 29.76 0.0
01 01:35 E 10 10.00 Overcast OVC016 78.3 71.8 81% 81 29.76 0.0
01 01:15 E 8 10.00 Overcast SCT014 OVC075 78.6 72 80% 81 29.76 0.0
01 00:55 E 12 10.00 Overcast OVC075 78.8 72.1 85.1 78.8 80% 82 29.75 0.0
01 00:35 E 8 10.00 Overcast OVC075 79.2 72.5 80% 83 29.75 0.0
01 00:15 E 8 10.00 Overcast OVC065 79.2 72.3 80% 82 29.76 0.0
30 23:55 E 10 10.00 Overcast OVC065 79.3 72.1 79% 83 29.76 0.0
30 23:35 E 13 G 18 10.00 Mostly Cloudy SCT030 BKN065 79.7 72.1 78% 83 29.76 0.0
30 23:15 E 10 10.00 Partly Cloudy SCT029 SCT037 SCT055 80.1 72 76% 84 29.77 0.0
30 22:55 E 12 G 16 10.00 Overcast SCT021 OVC032 80.6 71.8 75% 85 29.77 0.0
30 22:15 E 10 10.00 Partly Cloudy SCT043 80.6 70.9 72% 84 29.74 0.0
30 21:55 NE 7 10.00 Partly Cloudy SCT024 SCT046 80.1 69.4 70% 83 29.75 0.0
30 21:35 NE 10 10.00 Mostly Cloudy BKN024 80.1 69.3 70% 83 29.74 0.0
30 21:15 NE 7 10.00 Overcast OVC024 80.6 69.4 69% 84 29.73 0.0
30 20:55 NE 12 10.00 Mostly Cloudy BKN024 81 69.8 69% 84 29.71 0.0
30 20:35 NE 12 G 17 10.00 Partly Cloudy SCT024 SCT075 81.5 70 68% 85 29.71 0.0
30 20:15 NE 10 G 17 10.00 Partly Cloudy SCT060 SCT075 82 70.2 67% 86 29.7 0.0
30 19:55 NE 9 G 16 7.00 Partly Cloudy SCT060 83.3 70.7 66% 88 29.7 0.0
30 19:35 NE 8 G 17 7.00 Partly Cloudy SCT060 83.7 70.7 65% 88 29.7 0.0
30 19:15 N 10 G 17 7.00 Partly Cloudy SCT060 SCT070 84.6 71.1 64% 90 29.69 0.0
30 18:55 NE 13 G 18 7.00 Partly Cloudy SCT065 SCT070 85.1 71.8 90.5 81.1 64% 91 29.68 0.0
30 18:35 N 13 G 20 7.00 Partly Cloudy SCT033 SCT044 SCT050 85.3 72.3 65% 92 29.68 0.0
30 18:15 N 14 G 18 10.00 Partly Cloudy SCT033 SCT044 SCT055 86 72.1 63% 92 29.67 0.0
30 17:55 N 10 G 20 7.00 Mostly Cloudy BKN055 87.4 72.3 61% 94 29.66 0.0
30 17:35 NE 12 G 16 7.00 Mostly Cloudy BKN060 89.1 71.2 56% 95 29.66 0.0
30 17:15 Calm 10.00 Mostly Cloudy BKN060 90 69.8 52% 95 29.66 0.0
30 16:55 N 6 7.00 Partly Cloudy SCT050 90 69.4 51% 95 29.67 0.0
30 16:35 Calm 7.00 Mostly Cloudy SCT050 BKN055 90 70 52% 95 29.67 0.0
30 16:15 E 3 7.00 Mostly Cloudy SCT044 BKN050 90 69.8 52% 95 29.67 0.0
30 15:55 S 3 7.00 Mostly Cloudy SCT040 BKN045 89.8 70.3 53% 95 29.68 0.0
30 15:35 NE 3 7.00 Mostly Cloudy BKN038 BKN044 90 70.9 54% 96 29.69 0.0
30 15:15 Calm 7.00 Partly Cloudy SCT041 88.2 71.1 57% 94 29.71 0.0
30 14:55 Calm 7.00 Mostly Cloudy SCT027 SCT032 BKN039 86.4 71.8 62% 93 29.72 0.0
30 14:35 Calm 7.00 Overcast BKN025 OVC035 85.5 72 64% 92 29.74 0.0
30 14:15 E 6 5.00 Overcast with Haze BKN023 OVC033 85.3 72.5 66% 92 29.74 0.0
30 13:55 SE 3 5.00 Overcast with Haze OVC021 84 72.5 68% 90 29.76 0.0
30 13:35 E 3 5.00 Overcast with Haze BKN021 OVC027 82.6 72.3 71% 88 29.76 0.0
30 13:15 SE 5 5.00 Overcast with Haze BKN019 OVC026 82 72.1 72% 87 29.77 0.0
30 12:55 E 5 5.00 Overcast with Haze OVC019 81 72 82 76.3 74% 85 29.78 0.0
30 12:35 E 3 5.00 Overcast with Haze OVC021 81.9 72 72% 87 29.79 0.0
30 12:15 E 7 7.00 Overcast BKN019 OVC026 81.1 71.6 73% 85 29.8 0.0
30 11:55 E 3 7.00 Overcast SCT019 OVC026 81.5 71.6 72% 86 29.8 0.0
30 11:35 E 5 7.00 Overcast SCT017 OVC026 81.5 72 73% 86 29.8 0.0
30 11:15 E 7 7.00 Overcast BKN017 BKN023 OVC028 81.5 72 73% 86 29.8 0.0
30 10:55 E 6 7.00 Overcast BKN017 OVC028 80.8 72 75% 85 29.8 0.0
30 10:35 E 7 7.00 Overcast BKN015 OVC026 79.9 72 77% 84 29.81 0.0
30 10:15 E 6 7.00 Overcast BKN015 OVC023 79.2 71.8 78% 82 29.81 0.0
30 09:55 E 6 5.00 Overcast with Haze BKN015 OVC025 78.8 71.8 79% 82 29.81 0.0
30 09:35 E 7 7.00 Overcast SCT013 BKN020 OVC027 79 71.8 79% 82 29.81 0.0
30 09:15 E 6 7.00 Overcast SCT018 OVC027 78.4 71.8 80% 81 29.81 0.0
30 08:55 E 6 7.00 Overcast SCT018 OVC027 77.9 71.6 81% 80 29.82 0.0
30 08:15 E 6 7.00 Overcast OVC012 77.4 71.6 83% 79 29.81 0.0
30 07:55 NE 5 7.00 Overcast OVC012 77 71.6 83% 78 29.81 0.0
30 07:35 NE 3 7.00 Overcast OVC012 76.6 71.6 84% 78 29.8 0.0
30 07:15 E 3 7.00 Overcast BKN014 OVC021 76.5 71.4 84% 77 29.79 0.0
30 06:55 E 3 7.00 Overcast OVC019 76.3 71.1 80.6 75.9 84% 77 29.78 0.0
30 06:35 Calm 7.00 Overcast OVC019 76.3 71.1 84% 77 29.77 0.0
30 06:15 E 5 7.00 Overcast OVC019 76.5 71.1 83% 77 29.77 0.0
30 05:55 E 6 7.00 Overcast OVC019 76.5 71.1 83% 77 29.76 0.0
30 05:35 E 8 7.00 Overcast OVC017 76.5 71.1 83% 77 29.76 0.0
30 05:15 E 8 10.00 Overcast OVC013 77 71.2 82% 78 29.77 0.0
30 04:55 E 7 7.00 Overcast OVC011 76.6 71.2 83% 78 29.78 0.0
30 04:35 E 5 7.00 Overcast OVC011 76.5 71.6 85% 77 29.77 0.0
30 04:15 E 7 7.00 Overcast OVC011 76.3 71.6 86% 77 29.77 0.0
30 03:55 E 8 10.00 Mostly Cloudy BKN011 76.1 71.4 86% 77 29.77 0.0
30 03:35 E 8 10.00 Fair CLR 76.1 70.7 83% 77 29.77 0.0
30 03:15 E 8 10.00 Fair CLR 76.6 70.3 81% 78 29.76 0.0
30 02:55 E 6 10.00 Fair CLR 77 69.4 78% 79 29.76 0.0
30 02:35 E 6 10.00 Fair CLR 77.7 69.4 76% 80 29.77 0.0
30 02:15 E 6 10.00 Fair CLR 77.9 69.1 74% 80 29.77 0.0
30 01:55 E 5 10.00 Fair CLR 78.8 68.7 71% 81 29.77 0.0
30 01:35 E 5 10.00 Fair CLR 79.5 68 68% 82 29.78 0.0
30 01:15 E 8 10.00 Fair CLR 80.1 67.5 66% 83 29.78 0.0
30 00:55 E 6 10.00 Fair CLR 80.8 66.9 95.5 80.8 63% 83 29.8 0.0
30 00:15 SE 6 10.00 Fair CLR 82.4 65.7 57% 84 29.8 0.0
29 23:55 E 9 10.00 Fair CLR 83.1 65.5 55% 85 29.8 0.0
29 23:35 E 8 10.00 Fair CLR 84 65.7 54% 86 29.8 0.0
29 23:15 SE 12 10.00 Fair CLR 84.4 67.1 56% 87 29.8 0.0
29 22:55 SE 13 G 20 10.00 Fair CLR 85.3 68 56% 89 29.79 0.0
29 22:15 SE 9 G 17 10.00 Fair CLR 86.9 67.6 53% 90 29.78 0.0
29 21:55 SE 10 G 18 10.00 Fair CLR 87.8 68.5 53% 92 29.77 0.0
29 21:35 SE 7 10.00 Fair CLR 88.7 70.2 54% 94 29.76 0.0
29 21:15 SE 9 10.00 Fair CLR 89.8 70 52% 95 29.75 0.0
29 20:55 Calm 10.00 Fair CLR 90.7 68.9 49% 95 29.74 0.0
29 20:35 E 6 10.00 Fair CLR 91.4 68.4 47% 96 29.73 0.0
29 20:15 E 8 10.00 Fair CLR 92.5 68 45% 97 29.71 0.0
29 19:55 SE 6 10.00 Fair CLR 93.6 67.5 42% 98 29.7 0.0
29 19:35 SE 5 10.00 Fair CLR 94.3 67.1 41% 98 29.7 0.0
29 19:15 SE 6 10.00 Fair CLR 95 67.1 40% 99 29.7 0.0
29 18:55 SE 7 10.00 Fair CLR 95.9 66.2 98.6 91 38% 99 29.7 0.0
29 18:35 SE 7 10.00 Fair CLR 96.8 65.5 36% 100 29.7 0.0
29 18:15 SE 5 10.00 Fair CLR 97 64.8 35% 100 29.7 0.0
29 17:55 SE 9 10.00 Fair CLR 97.9 65.5 35% 101 29.69 0.0
29 17:35 SE 8 10.00 Fair CLR 97.2 65.8 36% 101 29.69 0.0
Date Time (cdt) Wind (mph) Vis. (mi.) Weather Sky Cond. Air Dwpt Max. Min. Relative Humidity Wind Chill (°F) Heat Index (°F) altimeter (in) sea level (mb) 1 hr 3 hr 6 hr
6 hour
Temperature (ºF) Pressure Precipitation (in)